sensor_id;sensor_type;location;lat;lon;timestamp;temperature;humidity
75994;DHT22;64680;53.800;9.988;2024-02-14T00:01:34;5.00;65.10
75994;DHT22;64680;53.800;9.988;2024-02-14T00:04:02;5.10;63.20
75994;DHT22;64680;53.800;9.988;2024-02-14T00:06:28;5.10;62.00
75994;DHT22;64680;53.800;9.988;2024-02-14T00:08:53;5.10;59.60
75994;DHT22;64680;53.800;9.988;2024-02-14T00:11:19;5.10;59.30
75994;DHT22;64680;53.800;9.988;2024-02-14T00:13:44;5.10;59.40
75994;DHT22;64680;53.800;9.988;2024-02-14T00:16:10;5.10;58.70
75994;DHT22;64680;53.800;9.988;2024-02-14T00:18:36;5.00;59.00
75994;DHT22;64680;53.800;9.988;2024-02-14T00:21:01;4.90;58.70
75994;DHT22;64680;53.800;9.988;2024-02-14T00:23:27;5.00;59.00
75994;DHT22;64680;53.800;9.988;2024-02-14T00:25:53;4.90;60.70
75994;DHT22;64680;53.800;9.988;2024-02-14T00:28:18;4.90;60.60
75994;DHT22;64680;53.800;9.988;2024-02-14T00:30:44;4.90;59.60
75994;DHT22;64680;53.800;9.988;2024-02-14T00:33:10;4.90;59.70
75994;DHT22;64680;53.800;9.988;2024-02-14T00:35:35;4.90;59.60
75994;DHT22;64680;53.800;9.988;2024-02-14T00:38:01;4.90;58.90
75994;DHT22;64680;53.800;9.988;2024-02-14T00:40:26;4.90;57.70
75994;DHT22;64680;53.800;9.988;2024-02-14T00:42:52;4.90;57.60
75994;DHT22;64680;53.800;9.988;2024-02-14T00:45:18;4.90;58.00
75994;DHT22;64680;53.800;9.988;2024-02-14T00:47:43;4.90;57.50
75994;DHT22;64680;53.800;9.988;2024-02-14T00:50:09;4.90;58.00
75994;DHT22;64680;53.800;9.988;2024-02-14T00:52:35;4.90;57.10
75994;DHT22;64680;53.800;9.988;2024-02-14T00:55:00;4.90;57.60
75994;DHT22;64680;53.800;9.988;2024-02-14T00:57:29;4.90;58.00
75994;DHT22;64680;53.800;9.988;2024-02-14T00:59:54;4.90;58.20
75994;DHT22;64680;53.800;9.988;2024-02-14T01:02:22;4.90;58.30
75994;DHT22;64680;53.800;9.988;2024-02-14T01:04:47;4.90;59.00
75994;DHT22;64680;53.800;9.988;2024-02-14T01:07:13;4.90;58.30
75994;DHT22;64680;53.800;9.988;2024-02-14T01:09:39;4.90;59.20
75994;DHT22;64680;53.800;9.988;2024-02-14T01:12:04;5.00;58.30
75994;DHT22;64680;53.800;9.988;2024-02-14T01:14:31;5.00;58.10
75994;DHT22;64680;53.800;9.988;2024-02-14T01:16:57;5.00;59.00
75994;DHT22;64680;53.800;9.988;2024-02-14T01:19:23;5.00;59.40
75994;DHT22;64680;53.800;9.988;2024-02-14T01:21:54;5.00;61.70
75994;DHT22;64680;53.800;9.988;2024-02-14T01:24:20;5.00;61.20
75994;DHT22;64680;53.800;9.988;2024-02-14T01:26:47;5.00;61.90
75994;DHT22;64680;53.800;9.988;2024-02-14T01:29:13;4.90;62.00
75994;DHT22;64680;53.800;9.988;2024-02-14T01:31:38;5.00;63.00
75994;DHT22;64680;53.800;9.988;2024-02-14T01:34:04;5.00;64.50
75994;DHT22;64680;53.800;9.988;2024-02-14T01:36:30;4.90;65.20
75994;DHT22;64680;53.800;9.988;2024-02-14T01:38:55;5.00;66.00
75994;DHT22;64680;53.800;9.988;2024-02-14T01:41:21;4.90;69.30
75994;DHT22;64680;53.800;9.988;2024-02-14T01:43:47;4.80;71.90
75994;DHT22;64680;53.800;9.988;2024-02-14T01:46:14;4.70;73.80
75994;DHT22;64680;53.800;9.988;2024-02-14T01:48:41;4.70;76.80
75994;DHT22;64680;53.800;9.988;2024-02-14T01:51:09;4.60;80.00
75994;DHT22;64680;53.800;9.988;2024-02-14T01:53:36;4.60;82.40
75994;DHT22;64680;53.800;9.988;2024-02-14T01:56:03;4.50;85.10
75994;DHT22;64680;53.800;9.988;2024-02-14T01:58:30;4.50;88.80
75994;DHT22;64680;53.800;9.988;2024-02-14T02:00:56;4.40;92.20
75994;DHT22;64680;53.800;9.988;2024-02-14T02:03:24;4.30;94.90
75994;DHT22;64680;53.800;9.988;2024-02-14T02:05:51;4.30;98.30
75994;DHT22;64680;53.800;9.988;2024-02-14T02:08:17;4.20;99.90
75994;DHT22;64680;53.800;9.988;2024-02-14T02:10:42;4.20;99.90
75994;DHT22;64680;53.800;9.988;2024-02-14T02:13:08;4.20;99.90
75994;DHT22;64680;53.800;9.988;2024-02-14T02:15:34;4.20;99.90
75994;DHT22;64680;53.800;9.988;2024-02-14T02:18:02;4.10;99.90
75994;DHT22;64680;53.800;9.988;2024-02-14T02:20:31;4.10;99.90
75994;DHT22;64680;53.800;9.988;2024-02-14T02:22:57;4.10;99.90
75994;DHT22;64680;53.800;9.988;2024-02-14T02:25:23;4.10;99.90
75994;DHT22;64680;53.800;9.988;2024-02-14T02:27:50;4.10;99.90
75994;DHT22;64680;53.800;9.988;2024-02-14T02:30:15;4.10;99.90
75994;DHT22;64680;53.800;9.988;2024-02-14T02:32:42;4.00;99.90
75994;DHT22;64680;53.800;9.988;2024-02-14T02:35:08;4.10;99.90
75994;DHT22;64680;53.800;9.988;2024-02-14T02:37:35;4.00;99.90
75994;DHT22;64680;53.800;9.988;2024-02-14T02:40:01;4.10;99.90
75994;DHT22;64680;53.800;9.988;2024-02-14T02:42:26;4.00;99.90
75994;DHT22;64680;53.800;9.988;2024-02-14T02:44:52;4.00;99.90
75994;DHT22;64680;53.800;9.988;2024-02-14T02:47:18;4.00;99.90
75994;DHT22;64680;53.800;9.988;2024-02-14T02:49:44;4.00;99.90
75994;DHT22;64680;53.800;9.988;2024-02-14T02:52:13;4.00;99.90
75994;DHT22;64680;53.800;9.988;2024-02-14T02:54:39;4.00;99.90
75994;DHT22;64680;53.800;9.988;2024-02-14T02:57:10;4.00;99.90
75994;DHT22;64680;53.800;9.988;2024-02-14T02:59:35;4.00;99.90
75994;DHT22;64680;53.800;9.988;2024-02-14T03:02:02;4.00;99.90
75994;DHT22;64680;53.800;9.988;2024-02-14T03:04:27;4.00;99.90
75994;DHT22;64680;53.800;9.988;2024-02-14T03:06:57;4.00;99.90
75994;DHT22;64680;53.800;9.988;2024-02-14T03:09:23;4.00;99.90
75994;DHT22;64680;53.800;9.988;2024-02-14T03:11:48;4.00;99.90
75994;DHT22;64680;53.800;9.988;2024-02-14T03:14:14;4.00;99.90
75994;DHT22;64680;53.800;9.988;2024-02-14T03:16:40;3.90;99.90
75994;DHT22;64680;53.800;9.988;2024-02-14T03:19:06;3.90;99.90
75994;DHT22;64680;53.800;9.988;2024-02-14T03:21:32;3.90;99.90
75994;DHT22;64680;53.800;9.988;2024-02-14T03:23:58;3.90;99.90
75994;DHT22;64680;53.800;9.988;2024-02-14T03:26:24;3.90;99.90
75994;DHT22;64680;53.800;9.988;2024-02-14T03:28:49;3.90;99.90
75994;DHT22;64680;53.800;9.988;2024-02-14T03:31:15;3.90;99.90
75994;DHT22;64680;53.800;9.988;2024-02-14T03:33:41;3.90;99.90
75994;DHT22;64680;53.800;9.988;2024-02-14T03:36:07;3.90;99.90
75994;DHT22;64680;53.800;9.988;2024-02-14T03:38:33;3.90;99.90
75994;DHT22;64680;53.800;9.988;2024-02-14T03:40:59;3.90;99.90
75994;DHT22;64680;53.800;9.988;2024-02-14T03:43:25;3.90;99.90
75994;DHT22;64680;53.800;9.988;2024-02-14T03:45:50;3.80;99.90
75994;DHT22;64680;53.800;9.988;2024-02-14T03:48:20;3.80;99.90
75994;DHT22;64680;53.800;9.988;2024-02-14T03:50:45;3.80;99.90
75994;DHT22;64680;53.800;9.988;2024-02-14T03:53:11;3.80;99.90
75994;DHT22;64680;53.800;9.988;2024-02-14T03:55:37;3.80;99.90
75994;DHT22;64680;53.800;9.988;2024-02-14T03:58:03;3.80;99.90
75994;DHT22;64680;53.800;9.988;2024-02-14T04:00:30;3.80;99.90
75994;DHT22;64680;53.800;9.988;2024-02-14T04:02:56;3.80;99.90
75994;DHT22;64680;53.800;9.988;2024-02-14T04:05:25;3.80;99.90
75994;DHT22;64680;53.800;9.988;2024-02-14T04:07:52;3.80;99.90
75994;DHT22;64680;53.800;9.988;2024-02-14T04:10:19;3.80;99.90
75994;DHT22;64680;53.800;9.988;2024-02-14T04:12:46;3.80;99.90
75994;DHT22;64680;53.800;9.988;2024-02-14T04:15:11;3.80;99.90
75994;DHT22;64680;53.800;9.988;2024-02-14T04:17:38;3.80;99.90
75994;DHT22;64680;53.800;9.988;2024-02-14T04:20:04;3.80;99.90
75994;DHT22;64680;53.800;9.988;2024-02-14T04:22:30;3.80;99.90
75994;DHT22;64680;53.800;9.988;2024-02-14T04:24:56;3.80;99.90
75994;DHT22;64680;53.800;9.988;2024-02-14T04:27:22;3.80;99.90
75994;DHT22;64680;53.800;9.988;2024-02-14T04:29:48;3.80;99.90
75994;DHT22;64680;53.800;9.988;2024-02-14T04:32:14;3.80;99.90
75994;DHT22;64680;53.800;9.988;2024-02-14T04:34:40;3.80;99.90
75994;DHT22;64680;53.800;9.988;2024-02-14T04:37:07;3.80;99.90
75994;DHT22;64680;53.800;9.988;2024-02-14T04:39:38;3.80;99.90
75994;DHT22;64680;53.800;9.988;2024-02-14T04:42:04;3.80;99.90
75994;DHT22;64680;53.800;9.988;2024-02-14T04:44:32;3.80;99.90
75994;DHT22;64680;53.800;9.988;2024-02-14T04:46:58;3.80;99.90
75994;DHT22;64680;53.800;9.988;2024-02-14T04:49:25;3.80;99.90
75994;DHT22;64680;53.800;9.988;2024-02-14T04:51:51;3.80;99.90
75994;DHT22;64680;53.800;9.988;2024-02-14T04:54:18;3.80;99.90
75994;DHT22;64680;53.800;9.988;2024-02-14T04:56:43;3.80;99.90
75994;DHT22;64680;53.800;9.988;2024-02-14T04:59:11;3.90;99.90
75994;DHT22;64680;53.800;9.988;2024-02-14T05:01:36;3.90;99.90
75994;DHT22;64680;53.800;9.988;2024-02-14T05:04:02;3.90;99.90
75994;DHT22;64680;53.800;9.988;2024-02-14T05:06:28;3.90;99.90
75994;DHT22;64680;53.800;9.988;2024-02-14T05:08:54;3.90;99.90
75994;DHT22;64680;53.800;9.988;2024-02-14T05:11:19;3.90;99.90
75994;DHT22;64680;53.800;9.988;2024-02-14T05:13:45;3.90;99.90
75994;DHT22;64680;53.800;9.988;2024-02-14T05:16:12;3.90;99.90
75994;DHT22;64680;53.800;9.988;2024-02-14T05:18:38;3.90;99.90
75994;DHT22;64680;53.800;9.988;2024-02-14T05:21:07;3.90;99.90
75994;DHT22;64680;53.800;9.988;2024-02-14T05:23:34;3.90;99.90
75994;DHT22;64680;53.800;9.988;2024-02-14T05:26:05;3.90;99.90
75994;DHT22;64680;53.800;9.988;2024-02-14T05:28:31;4.00;99.90
75994;DHT22;64680;53.800;9.988;2024-02-14T05:30:57;4.00;99.90
75994;DHT22;64680;53.800;9.988;2024-02-14T05:33:23;4.00;99.90
75994;DHT22;64680;53.800;9.988;2024-02-14T05:35:49;3.90;99.90
75994;DHT22;64680;53.800;9.988;2024-02-14T05:38:15;4.00;99.90
75994;DHT22;64680;53.800;9.988;2024-02-14T05:40:41;4.00;99.90
75994;DHT22;64680;53.800;9.988;2024-02-14T05:43:11;4.00;99.90
75994;DHT22;64680;53.800;9.988;2024-02-14T05:45:37;4.00;99.90
75994;DHT22;64680;53.800;9.988;2024-02-14T05:48:03;4.00;99.90
75994;DHT22;64680;53.800;9.988;2024-02-14T05:50:29;4.00;99.90
75994;DHT22;64680;53.800;9.988;2024-02-14T05:52:55;4.00;99.90
75994;DHT22;64680;53.800;9.988;2024-02-14T05:55:23;4.10;99.90
75994;DHT22;64680;53.800;9.988;2024-02-14T05:57:50;4.10;99.90
75994;DHT22;64680;53.800;9.988;2024-02-14T06:00:17;4.20;99.90
75994;DHT22;64680;53.800;9.988;2024-02-14T06:02:44;4.10;99.90
75994;DHT22;64680;53.800;9.988;2024-02-14T06:05:10;4.20;99.90
75994;DHT22;64680;53.800;9.988;2024-02-14T06:07:39;4.20;99.90
75994;DHT22;64680;53.800;9.988;2024-02-14T06:10:10;4.20;99.90
75994;DHT22;64680;53.800;9.988;2024-02-14T06:12:36;4.20;99.90
75994;DHT22;64680;53.800;9.988;2024-02-14T06:15:03;4.20;99.90
75994;DHT22;64680;53.800;9.988;2024-02-14T06:17:28;4.20;99.90
75994;DHT22;64680;53.800;9.988;2024-02-14T06:19:54;4.20;99.90
75994;DHT22;64680;53.800;9.988;2024-02-14T06:22:20;4.20;99.90
75994;DHT22;64680;53.800;9.988;2024-02-14T06:24:46;4.30;99.90
75994;DHT22;64680;53.800;9.988;2024-02-14T06:27:14;4.20;99.90
75994;DHT22;64680;53.800;9.988;2024-02-14T06:29:45;4.30;99.90
75994;DHT22;64680;53.800;9.988;2024-02-14T06:32:14;4.30;99.90
75994;DHT22;64680;53.800;9.988;2024-02-14T06:34:39;4.30;99.90
75994;DHT22;64680;53.800;9.988;2024-02-14T06:37:05;4.30;99.90
75994;DHT22;64680;53.800;9.988;2024-02-14T06:39:30;4.30;99.90
75994;DHT22;64680;53.800;9.988;2024-02-14T06:41:56;4.40;99.90
75994;DHT22;64680;53.800;9.988;2024-02-14T06:44:25;4.40;99.90
75994;DHT22;64680;53.800;9.988;2024-02-14T06:46:51;4.40;99.90
75994;DHT22;64680;53.800;9.988;2024-02-14T06:49:16;4.40;99.90
75994;DHT22;64680;53.800;9.988;2024-02-14T06:51:43;4.40;99.90
75994;DHT22;64680;53.800;9.988;2024-02-14T06:54:08;4.40;99.90
75994;DHT22;64680;53.800;9.988;2024-02-14T06:56:35;4.40;99.90
75994;DHT22;64680;53.800;9.988;2024-02-14T06:59:00;4.50;99.90
75994;DHT22;64680;53.800;9.988;2024-02-14T07:01:27;4.40;99.90
75994;DHT22;64680;53.800;9.988;2024-02-14T07:03:53;4.50;99.90
75994;DHT22;64680;53.800;9.988;2024-02-14T07:06:19;4.50;99.90
75994;DHT22;64680;53.800;9.988;2024-02-14T07:08:44;4.60;99.90
75994;DHT22;64680;53.800;9.988;2024-02-14T07:11:10;4.60;99.90
75994;DHT22;64680;53.800;9.988;2024-02-14T07:13:36;4.60;99.90
75994;DHT22;64680;53.800;9.988;2024-02-14T07:16:02;4.60;99.90
75994;DHT22;64680;53.800;9.988;2024-02-14T07:18:27;4.60;99.90
75994;DHT22;64680;53.800;9.988;2024-02-14T07:20:53;4.70;99.90
75994;DHT22;64680;53.800;9.988;2024-02-14T07:23:19;4.60;99.90
75994;DHT22;64680;53.800;9.988;2024-02-14T07:25:45;4.70;99.90
75994;DHT22;64680;53.800;9.988;2024-02-14T07:28:11;4.70;99.90
75994;DHT22;64680;53.800;9.988;2024-02-14T07:30:37;4.70;99.90
75994;DHT22;64680;53.800;9.988;2024-02-14T07:33:02;4.70;99.90
75994;DHT22;64680;53.800;9.988;2024-02-14T07:35:28;4.70;99.90
75994;DHT22;64680;53.800;9.988;2024-02-14T07:37:54;4.80;99.90
75994;DHT22;64680;53.800;9.988;2024-02-14T07:40:21;4.80;99.90
75994;DHT22;64680;53.800;9.988;2024-02-14T07:42:47;4.80;99.90
75994;DHT22;64680;53.800;9.988;2024-02-14T07:45:13;4.80;99.90
75994;DHT22;64680;53.800;9.988;2024-02-14T07:47:39;4.80;99.90
75994;DHT22;64680;53.800;9.988;2024-02-14T07:50:09;4.90;99.90
75994;DHT22;64680;53.800;9.988;2024-02-14T07:52:34;4.90;99.90
75994;DHT22;64680;53.800;9.988;2024-02-14T07:55:01;4.90;99.90
75994;DHT22;64680;53.800;9.988;2024-02-14T07:57:27;5.00;99.90
75994;DHT22;64680;53.800;9.988;2024-02-14T07:59:53;5.00;99.90
75994;DHT22;64680;53.800;9.988;2024-02-14T08:02:19;5.00;99.90
75994;DHT22;64680;53.800;9.988;2024-02-14T08:04:45;5.00;99.90
75994;DHT22;64680;53.800;9.988;2024-02-14T08:07:10;5.00;99.90
75994;DHT22;64680;53.800;9.988;2024-02-14T08:09:36;5.10;99.90
75994;DHT22;64680;53.800;9.988;2024-02-14T08:12:04;5.10;99.90
75994;DHT22;64680;53.800;9.988;2024-02-14T08:14:30;5.10;99.90
75994;DHT22;64680;53.800;9.988;2024-02-14T08:16:55;5.10;99.90
75994;DHT22;64680;53.800;9.988;2024-02-14T08:19:21;5.20;99.90
75994;DHT22;64680;53.800;9.988;2024-02-14T08:21:46;5.20;99.90
75994;DHT22;64680;53.800;9.988;2024-02-14T08:24:12;5.30;99.90
75994;DHT22;64680;53.800;9.988;2024-02-14T08:26:37;5.30;99.90
75994;DHT22;64680;53.800;9.988;2024-02-14T08:29:03;5.30;99.90
75994;DHT22;64680;53.800;9.988;2024-02-14T08:31:29;5.30;99.90
75994;DHT22;64680;53.800;9.988;2024-02-14T08:33:56;5.30;99.90
75994;DHT22;64680;53.800;9.988;2024-02-14T08:36:22;5.40;99.90
75994;DHT22;64680;53.800;9.988;2024-02-14T08:38:47;5.40;99.90
75994;DHT22;64680;53.800;9.988;2024-02-14T08:41:13;5.40;99.90
75994;DHT22;64680;53.800;9.988;2024-02-14T08:43:39;5.40;99.90
75994;DHT22;64680;53.800;9.988;2024-02-14T08:46:12;5.50;99.90
75994;DHT22;64680;53.800;9.988;2024-02-14T08:48:37;5.50;99.90
75994;DHT22;64680;53.800;9.988;2024-02-14T08:51:14;5.50;99.90
75994;DHT22;64680;53.800;9.988;2024-02-14T08:53:40;5.50;99.90
75994;DHT22;64680;53.800;9.988;2024-02-14T08:56:07;5.60;99.90
75994;DHT22;64680;53.800;9.988;2024-02-14T08:58:34;5.60;99.90
75994;DHT22;64680;53.800;9.988;2024-02-14T09:01:01;5.60;99.90
75994;DHT22;64680;53.800;9.988;2024-02-14T09:03:26;5.60;99.90
75994;DHT22;64680;53.800;9.988;2024-02-14T09:05:52;5.60;99.90
75994;DHT22;64680;53.800;9.988;2024-02-14T09:08:18;5.60;99.90
75994;DHT22;64680;53.800;9.988;2024-02-14T09:10:46;5.70;99.90
75994;DHT22;64680;53.800;9.988;2024-02-14T09:13:11;5.70;99.90
75994;DHT22;64680;53.800;9.988;2024-02-14T09:15:37;5.80;99.90
75994;DHT22;64680;53.800;9.988;2024-02-14T09:18:02;5.80;99.90
75994;DHT22;64680;53.800;9.988;2024-02-14T09:20:29;5.90;99.90
75994;DHT22;64680;53.800;9.988;2024-02-14T09:22:55;5.90;99.90
75994;DHT22;64680;53.800;9.988;2024-02-14T09:25:21;6.00;99.90
75994;DHT22;64680;53.800;9.988;2024-02-14T09:27:49;6.00;99.90
75994;DHT22;64680;53.800;9.988;2024-02-14T09:30:15;6.00;99.90
75994;DHT22;64680;53.800;9.988;2024-02-14T09:32:43;6.10;99.90
75994;DHT22;64680;53.800;9.988;2024-02-14T09:35:09;6.20;99.90
75994;DHT22;64680;53.800;9.988;2024-02-14T09:37:35;6.20;99.90
75994;DHT22;64680;53.800;9.988;2024-02-14T09:40:04;6.20;99.90
75994;DHT22;64680;53.800;9.988;2024-02-14T09:43:00;6.30;99.90
75994;DHT22;64680;53.800;9.988;2024-02-14T09:45:29;6.30;99.90
75994;DHT22;64680;53.800;9.988;2024-02-14T09:47:57;6.40;99.90
75994;DHT22;64680;53.800;9.988;2024-02-14T09:50:23;6.40;99.90
75994;DHT22;64680;53.800;9.988;2024-02-14T09:52:50;6.40;99.90
75994;DHT22;64680;53.800;9.988;2024-02-14T09:55:17;6.50;99.90
75994;DHT22;64680;53.800;9.988;2024-02-14T09:57:43;6.50;99.90
75994;DHT22;64680;53.800;9.988;2024-02-14T10:00:12;6.50;99.90
75994;DHT22;64680;53.800;9.988;2024-02-14T10:02:41;6.60;99.90
75994;DHT22;64680;53.800;9.988;2024-02-14T10:05:07;6.60;99.90
75994;DHT22;64680;53.800;9.988;2024-02-14T10:07:43;6.60;99.90
75994;DHT22;64680;53.800;9.988;2024-02-14T10:10:09;6.70;99.90
75994;DHT22;64680;53.800;9.988;2024-02-14T10:12:35;6.80;99.90
75994;DHT22;64680;53.800;9.988;2024-02-14T10:15:01;6.90;99.90
75994;DHT22;64680;53.800;9.988;2024-02-14T10:17:27;6.90;99.90
75994;DHT22;64680;53.800;9.988;2024-02-14T10:19:57;7.00;99.90
75994;DHT22;64680;53.800;9.988;2024-02-14T10:22:24;7.10;99.90
75994;DHT22;64680;53.800;9.988;2024-02-14T10:24:50;7.10;99.90
75994;DHT22;64680;53.800;9.988;2024-02-14T10:27:16;7.20;99.90
75994;DHT22;64680;53.800;9.988;2024-02-14T10:29:41;7.20;99.90
75994;DHT22;64680;53.800;9.988;2024-02-14T10:32:09;7.30;99.90
75994;DHT22;64680;53.800;9.988;2024-02-14T10:34:36;7.30;99.90
75994;DHT22;64680;53.800;9.988;2024-02-14T10:37:03;7.30;99.90
75994;DHT22;64680;53.800;9.988;2024-02-14T10:39:32;7.50;99.90
75994;DHT22;64680;53.800;9.988;2024-02-14T10:41:58;7.50;99.90
75994;DHT22;64680;53.800;9.988;2024-02-14T10:44:25;7.60;99.90
75994;DHT22;64680;53.800;9.988;2024-02-14T10:46:52;7.70;99.90
75994;DHT22;64680;53.800;9.988;2024-02-14T10:49:22;7.70;99.90
75994;DHT22;64680;53.800;9.988;2024-02-14T10:51:49;7.70;99.90
75994;DHT22;64680;53.800;9.988;2024-02-14T10:54:20;7.80;99.90
75994;DHT22;64680;53.800;9.988;2024-02-14T10:56:49;7.90;99.90
75994;DHT22;64680;53.800;9.988;2024-02-14T10:59:18;7.90;99.90
75994;DHT22;64680;53.800;9.988;2024-02-14T11:01:45;8.00;99.90
75994;DHT22;64680;53.800;9.988;2024-02-14T11:04:11;8.10;99.90
75994;DHT22;64680;53.800;9.988;2024-02-14T11:06:52;8.10;99.90
75994;DHT22;64680;53.800;9.988;2024-02-14T11:09:32;8.10;99.90
75994;DHT22;64680;53.800;9.988;2024-02-14T11:12:01;8.10;99.90
75994;DHT22;64680;53.800;9.988;2024-02-14T11:14:31;8.10;99.90
75994;DHT22;64680;53.800;9.988;2024-02-14T11:16:59;8.10;99.90
75994;DHT22;64680;53.800;9.988;2024-02-14T11:19:31;8.10;99.90
75994;DHT22;64680;53.800;9.988;2024-02-14T11:22:17;8.10;99.90
75994;DHT22;64680;53.800;9.988;2024-02-14T11:24:46;8.20;99.90
75994;DHT22;64680;53.800;9.988;2024-02-14T11:27:11;8.20;99.90
75994;DHT22;64680;53.800;9.988;2024-02-14T11:29:51;8.20;99.90
75994;DHT22;64680;53.800;9.988;2024-02-14T11:32:17;8.30;99.90
75994;DHT22;64680;53.800;9.988;2024-02-14T11:34:44;8.30;99.90
75994;DHT22;64680;53.800;9.988;2024-02-14T11:37:19;8.40;99.90
75994;DHT22;64680;53.800;9.988;2024-02-14T11:39:46;8.50;99.90
75994;DHT22;64680;53.800;9.988;2024-02-14T11:42:11;8.50;99.90
75994;DHT22;64680;53.800;9.988;2024-02-14T11:44:40;8.60;99.90
75994;DHT22;64680;53.800;9.988;2024-02-14T11:47:11;8.60;99.90
75994;DHT22;64680;53.800;9.988;2024-02-14T11:49:37;8.60;99.90
75994;DHT22;64680;53.800;9.988;2024-02-14T11:52:04;8.60;99.90
75994;DHT22;64680;53.800;9.988;2024-02-14T11:54:30;8.60;99.90
75994;DHT22;64680;53.800;9.988;2024-02-14T11:56:56;8.60;99.90
75994;DHT22;64680;53.800;9.988;2024-02-14T11:59:22;8.60;99.90
75994;DHT22;64680;53.800;9.988;2024-02-14T12:01:48;8.60;99.90
75994;DHT22;64680;53.800;9.988;2024-02-14T12:04:17;8.70;99.90
75994;DHT22;64680;53.800;9.988;2024-02-14T12:06:43;8.70;99.90
75994;DHT22;64680;53.800;9.988;2024-02-14T12:09:09;8.70;99.90
75994;DHT22;64680;53.800;9.988;2024-02-14T12:11:39;8.70;99.90
75994;DHT22;64680;53.800;9.988;2024-02-14T12:14:06;8.80;99.90
75994;DHT22;64680;53.800;9.988;2024-02-14T12:16:34;8.80;99.90
75994;DHT22;64680;53.800;9.988;2024-02-14T12:19:09;8.80;99.90
75994;DHT22;64680;53.800;9.988;2024-02-14T12:21:41;8.80;99.90
75994;DHT22;64680;53.800;9.988;2024-02-14T12:24:08;8.80;99.90
75994;DHT22;64680;53.800;9.988;2024-02-14T12:26:35;8.80;99.90
75994;DHT22;64680;53.800;9.988;2024-02-14T12:29:03;8.80;99.90
75994;DHT22;64680;53.800;9.988;2024-02-14T12:31:29;8.90;99.90
75994;DHT22;64680;53.800;9.988;2024-02-14T12:33:57;8.90;99.90
75994;DHT22;64680;53.800;9.988;2024-02-14T12:36:28;8.90;99.90
75994;DHT22;64680;53.800;9.988;2024-02-14T12:38:54;8.90;99.90
75994;DHT22;64680;53.800;9.988;2024-02-14T12:41:20;8.90;99.90
75994;DHT22;64680;53.800;9.988;2024-02-14T12:43:47;8.90;99.90
75994;DHT22;64680;53.800;9.988;2024-02-14T12:46:13;8.90;99.90
75994;DHT22;64680;53.800;9.988;2024-02-14T12:48:39;8.90;99.90
75994;DHT22;64680;53.800;9.988;2024-02-14T12:51:05;8.90;99.90
75994;DHT22;64680;53.800;9.988;2024-02-14T12:53:30;9.00;99.90
75994;DHT22;64680;53.800;9.988;2024-02-14T12:55:56;9.10;99.90
75994;DHT22;64680;53.800;9.988;2024-02-14T12:58:22;9.10;99.90
75994;DHT22;64680;53.800;9.988;2024-02-14T13:00:47;9.20;99.90
75994;DHT22;64680;53.800;9.988;2024-02-14T13:03:13;9.20;99.90
75994;DHT22;64680;53.800;9.988;2024-02-14T13:05:39;9.20;99.90
75994;DHT22;64680;53.800;9.988;2024-02-14T13:08:08;9.30;99.90
75994;DHT22;64680;53.800;9.988;2024-02-14T13:10:35;9.30;99.90
75994;DHT22;64680;53.800;9.988;2024-02-14T13:13:01;9.40;99.90
75994;DHT22;64680;53.800;9.988;2024-02-14T13:15:27;9.40;99.90
75994;DHT22;64680;53.800;9.988;2024-02-14T13:17:53;9.50;99.90
75994;DHT22;64680;53.800;9.988;2024-02-14T13:20:19;9.60;99.90
75994;DHT22;64680;53.800;9.988;2024-02-14T13:22:44;9.60;99.90
75994;DHT22;64680;53.800;9.988;2024-02-14T13:25:11;9.60;99.90
75994;DHT22;64680;53.800;9.988;2024-02-14T13:27:37;9.60;99.90
75994;DHT22;64680;53.800;9.988;2024-02-14T13:30:04;9.60;99.90
75994;DHT22;64680;53.800;9.988;2024-02-14T13:32:30;9.70;99.90
75994;DHT22;64680;53.800;9.988;2024-02-14T13:34:55;9.70;99.90
75994;DHT22;64680;53.800;9.988;2024-02-14T13:37:22;9.60;99.90
75994;DHT22;64680;53.800;9.988;2024-02-14T13:39:48;9.60;99.90
75994;DHT22;64680;53.800;9.988;2024-02-14T13:42:14;9.70;99.90
75994;DHT22;64680;53.800;9.988;2024-02-14T13:44:39;9.70;99.90
75994;DHT22;64680;53.800;9.988;2024-02-14T13:47:05;9.70;99.90
75994;DHT22;64680;53.800;9.988;2024-02-14T13:49:30;9.70;99.90
75994;DHT22;64680;53.800;9.988;2024-02-14T13:51:56;9.70;99.90
75994;DHT22;64680;53.800;9.988;2024-02-14T13:54:23;9.70;99.90
75994;DHT22;64680;53.800;9.988;2024-02-14T13:56:50;9.70;99.90
75994;DHT22;64680;53.800;9.988;2024-02-14T13:59:16;9.80;99.90
75994;DHT22;64680;53.800;9.988;2024-02-14T14:01:42;9.70;99.90
75994;DHT22;64680;53.800;9.988;2024-02-14T14:04:08;9.80;99.90
75994;DHT22;64680;53.800;9.988;2024-02-14T14:06:33;9.70;99.90
75994;DHT22;64680;53.800;9.988;2024-02-14T14:09:00;9.70;99.90
75994;DHT22;64680;53.800;9.988;2024-02-14T14:11:26;9.70;99.90
75994;DHT22;64680;53.800;9.988;2024-02-14T14:13:52;9.70;99.90
75994;DHT22;64680;53.800;9.988;2024-02-14T14:16:17;9.70;99.90
75994;DHT22;64680;53.800;9.988;2024-02-14T14:18:46;9.70;99.90
75994;DHT22;64680;53.800;9.988;2024-02-14T14:21:12;9.70;99.90
75994;DHT22;64680;53.800;9.988;2024-02-14T14:23:37;9.80;99.90
75994;DHT22;64680;53.800;9.988;2024-02-14T14:26:03;9.70;99.90
75994;DHT22;64680;53.800;9.988;2024-02-14T14:28:28;9.70;99.90
75994;DHT22;64680;53.800;9.988;2024-02-14T14:30:54;9.70;99.90
75994;DHT22;64680;53.800;9.988;2024-02-14T14:33:20;9.70;99.90
75994;DHT22;64680;53.800;9.988;2024-02-14T14:35:46;9.70;99.90
75994;DHT22;64680;53.800;9.988;2024-02-14T14:38:15;9.80;99.90
75994;DHT22;64680;53.800;9.988;2024-02-14T14:40:40;9.80;99.90
75994;DHT22;64680;53.800;9.988;2024-02-14T14:43:06;9.80;99.90
75994;DHT22;64680;53.800;9.988;2024-02-14T14:45:33;9.80;99.90
75994;DHT22;64680;53.800;9.988;2024-02-14T14:47:59;9.80;99.90
75994;DHT22;64680;53.800;9.988;2024-02-14T14:50:24;9.80;99.90
75994;DHT22;64680;53.800;9.988;2024-02-14T14:52:51;9.70;99.90
75994;DHT22;64680;53.800;9.988;2024-02-14T14:55:18;9.70;99.90
75994;DHT22;64680;53.800;9.988;2024-02-14T14:57:44;9.80;99.90
75994;DHT22;64680;53.800;9.988;2024-02-14T15:00:10;9.70;99.90
75994;DHT22;64680;53.800;9.988;2024-02-14T15:02:44;9.80;99.90
75994;DHT22;64680;53.800;9.988;2024-02-14T15:05:11;9.80;99.90
75994;DHT22;64680;53.800;9.988;2024-02-14T15:07:40;9.80;99.90
75994;DHT22;64680;53.800;9.988;2024-02-14T15:10:07;9.80;99.90
75994;DHT22;64680;53.800;9.988;2024-02-14T15:12:36;9.90;99.90
75994;DHT22;64680;53.800;9.988;2024-02-14T15:15:05;9.80;99.90
75994;DHT22;64680;53.800;9.988;2024-02-14T15:17:31;9.80;99.90
75994;DHT22;64680;53.800;9.988;2024-02-14T15:19:57;9.80;99.90
75994;DHT22;64680;53.800;9.988;2024-02-14T15:22:23;9.80;99.90
75994;DHT22;64680;53.800;9.988;2024-02-14T15:24:54;9.70;99.90
75994;DHT22;64680;53.800;9.988;2024-02-14T15:27:20;9.80;99.90
75994;DHT22;64680;53.800;9.988;2024-02-14T15:29:51;9.80;99.90
75994;DHT22;64680;53.800;9.988;2024-02-14T15:32:36;9.80;99.90
75994;DHT22;64680;53.800;9.988;2024-02-14T15:35:20;9.80;99.90
75994;DHT22;64680;53.800;9.988;2024-02-14T15:37:46;9.80;99.90
75994;DHT22;64680;53.800;9.988;2024-02-14T15:40:17;9.70;99.90
75994;DHT22;64680;53.800;9.988;2024-02-14T15:42:43;9.70;99.90